sensor_id;sensor_type;location;lat;lon;timestamp;P1;durP1;ratioP1;P2;durP2;ratioP2
5171;SDS011;2605;49.770;9.868;2023-07-20T00:00:25;3.43;;;3.00;;
5171;SDS011;2605;49.770;9.868;2023-07-20T00:02:51;5.13;;;4.60;;
5171;SDS011;2605;49.770;9.868;2023-07-20T00:05:17;5.00;;;4.50;;
5171;SDS011;2605;49.770;9.868;2023-07-20T00:07:49;3.83;;;3.20;;
5171;SDS011;2605;49.770;9.868;2023-07-20T00:10:17;4.80;;;4.40;;
5171;SDS011;2605;49.770;9.868;2023-07-20T00:12:42;4.10;;;3.70;;
5171;SDS011;2605;49.770;9.868;2023-07-20T00:15:12;5.50;;;4.53;;
5171;SDS011;2605;49.770;9.868;2023-07-20T00:17:38;4.67;;;4.17;;
5171;SDS011;2605;49.770;9.868;2023-07-20T00:20:05;5.87;;;4.27;;
5171;SDS011;2605;49.770;9.868;2023-07-20T00:22:31;5.53;;;5.00;;
5171;SDS011;2605;49.770;9.868;2023-07-20T00:24:56;4.97;;;4.57;;
5171;SDS011;2605;49.770;9.868;2023-07-20T00:27:22;5.47;;;4.97;;
5171;SDS011;2605;49.770;9.868;2023-07-20T00:29:47;11.17;;;5.97;;
5171;SDS011;2605;49.770;9.868;2023-07-20T00:32:16;6.00;;;5.50;;
5171;SDS011;2605;49.770;9.868;2023-07-20T00:34:41;6.30;;;5.70;;
5171;SDS011;2605;49.770;9.868;2023-07-20T00:37:07;6.77;;;5.90;;
5171;SDS011;2605;49.770;9.868;2023-07-20T00:39:32;9.20;;;5.30;;
5171;SDS011;2605;49.770;9.868;2023-07-20T00:41:58;6.63;;;5.50;;
5171;SDS011;2605;49.770;9.868;2023-07-20T00:44:23;6.93;;;4.53;;
5171;SDS011;2605;49.770;9.868;2023-07-20T00:46:49;6.33;;;4.60;;
5171;SDS011;2605;49.770;9.868;2023-07-20T00:49:15;7.37;;;5.30;;
5171;SDS011;2605;49.770;9.868;2023-07-20T00:51:41;4.63;;;4.10;;
5171;SDS011;2605;49.770;9.868;2023-07-20T00:54:07;10.10;;;5.80;;
5171;SDS011;2605;49.770;9.868;2023-07-20T00:56:33;5.17;;;4.77;;
5171;SDS011;2605;49.770;9.868;2023-07-20T00:58:59;4.47;;;4.03;;
5171;SDS011;2605;49.770;9.868;2023-07-20T01:01:24;9.37;;;5.57;;
5171;SDS011;2605;49.770;9.868;2023-07-20T01:03:50;4.53;;;4.13;;
5171;SDS011;2605;49.770;9.868;2023-07-20T01:06:19;4.90;;;4.60;;
5171;SDS011;2605;49.770;9.868;2023-07-20T01:08:57;4.77;;;4.30;;
5171;SDS011;2605;49.770;9.868;2023-07-20T01:14:28;5.60;;;3.60;;
5171;SDS011;2605;49.770;9.868;2023-07-20T01:16:54;5.03;;;4.40;;
5171;SDS011;2605;49.770;9.868;2023-07-20T01:19:20;4.90;;;3.47;;
5171;SDS011;2605;49.770;9.868;2023-07-20T01:24:30;3.30;;;3.10;;
5171;SDS011;2605;49.770;9.868;2023-07-20T01:27:21;4.83;;;4.30;;
5171;SDS011;2605;49.770;9.868;2023-07-20T01:32:51;3.87;;;3.27;;
5171;SDS011;2605;49.770;9.868;2023-07-20T01:35:20;4.17;;;3.87;;
5171;SDS011;2605;49.770;9.868;2023-07-20T01:37:49;3.33;;;1.90;;
5171;SDS011;2605;49.770;9.868;2023-07-20T01:40:15;5.20;;;3.33;;
5171;SDS011;2605;49.770;9.868;2023-07-20T01:42:48;5.13;;;3.00;;
5171;SDS011;2605;49.770;9.868;2023-07-20T01:45:13;3.20;;;3.00;;
5171;SDS011;2605;49.770;9.868;2023-07-20T01:47:39;3.80;;;3.10;;
5171;SDS011;2605;49.770;9.868;2023-07-20T01:50:05;2.60;;;2.40;;
5171;SDS011;2605;49.770;9.868;2023-07-20T01:52:31;5.77;;;2.73;;
5171;SDS011;2605;49.770;9.868;2023-07-20T01:54:57;4.00;;;3.60;;
5171;SDS011;2605;49.770;9.868;2023-07-20T01:57:23;5.20;;;3.10;;
5171;SDS011;2605;49.770;9.868;2023-07-20T01:59:49;4.90;;;3.07;;
5171;SDS011;2605;49.770;9.868;2023-07-20T02:02:14;2.80;;;2.57;;
5171;SDS011;2605;49.770;9.868;2023-07-20T02:04:40;5.00;;;3.00;;
5171;SDS011;2605;49.770;9.868;2023-07-20T02:07:05;3.20;;;2.90;;
5171;SDS011;2605;49.770;9.868;2023-07-20T02:09:31;3.13;;;2.70;;
5171;SDS011;2605;49.770;9.868;2023-07-20T02:11:56;3.23;;;2.70;;
5171;SDS011;2605;49.770;9.868;2023-07-20T02:14:22;3.20;;;3.00;;
5171;SDS011;2605;49.770;9.868;2023-07-20T02:16:48;3.30;;;2.47;;
5171;SDS011;2605;49.770;9.868;2023-07-20T02:19:17;5.00;;;3.17;;
5171;SDS011;2605;49.770;9.868;2023-07-20T02:21:43;3.27;;;3.03;;
5171;SDS011;2605;49.770;9.868;2023-07-20T02:24:08;7.90;;;3.20;;
5171;SDS011;2605;49.770;9.868;2023-07-20T02:26:34;5.90;;;2.97;;
5171;SDS011;2605;49.770;9.868;2023-07-20T02:28:59;5.67;;;3.50;;
5171;SDS011;2605;49.770;9.868;2023-07-20T02:31:25;3.43;;;2.70;;
5171;SDS011;2605;49.770;9.868;2023-07-20T02:33:50;6.63;;;2.80;;
5171;SDS011;2605;49.770;9.868;2023-07-20T02:36:16;7.70;;;3.27;;
5171;SDS011;2605;49.770;9.868;2023-07-20T02:38:42;7.97;;;3.17;;
5171;SDS011;2605;49.770;9.868;2023-07-20T02:41:08;3.80;;;3.50;;
5171;SDS011;2605;49.770;9.868;2023-07-20T02:43:33;5.37;;;3.30;;
5171;SDS011;2605;49.770;9.868;2023-07-20T02:45:59;6.90;;;3.87;;
5171;SDS011;2605;49.770;9.868;2023-07-20T02:48:24;3.83;;;3.37;;
5171;SDS011;2605;49.770;9.868;2023-07-20T02:50:50;3.00;;;2.80;;
5171;SDS011;2605;49.770;9.868;2023-07-20T02:53:15;4.07;;;3.77;;
5171;SDS011;2605;49.770;9.868;2023-07-20T02:55:41;3.83;;;3.43;;
5171;SDS011;2605;49.770;9.868;2023-07-20T02:58:06;4.57;;;4.27;;
5171;SDS011;2605;49.770;9.868;2023-07-20T03:00:32;9.17;;;3.97;;
5171;SDS011;2605;49.770;9.868;2023-07-20T03:02:58;2.80;;;2.67;;
5171;SDS011;2605;49.770;9.868;2023-07-20T03:05:23;6.50;;;3.50;;
5171;SDS011;2605;49.770;9.868;2023-07-20T03:07:50;4.23;;;3.57;;
5171;SDS011;2605;49.770;9.868;2023-07-20T03:10:16;6.77;;;4.13;;
5171;SDS011;2605;49.770;9.868;2023-07-20T03:12:41;4.63;;;3.70;;
5171;SDS011;2605;49.770;9.868;2023-07-20T03:15:07;5.57;;;3.63;;
5171;SDS011;2605;49.770;9.868;2023-07-20T03:17:33;7.03;;;4.27;;
5171;SDS011;2605;49.770;9.868;2023-07-20T03:19:59;4.70;;;3.73;;
5171;SDS011;2605;49.770;9.868;2023-07-20T03:22:25;3.10;;;3.00;;
5171;SDS011;2605;49.770;9.868;2023-07-20T03:24:51;3.30;;;2.87;;
5171;SDS011;2605;49.770;9.868;2023-07-20T03:27:17;3.53;;;3.33;;
5171;SDS011;2605;49.770;9.868;2023-07-20T03:29:43;3.83;;;3.57;;
5171;SDS011;2605;49.770;9.868;2023-07-20T03:32:09;9.83;;;3.97;;
5171;SDS011;2605;49.770;9.868;2023-07-20T03:34:35;2.63;;;2.53;;
5171;SDS011;2605;49.770;9.868;2023-07-20T03:37:00;3.40;;;3.10;;
5171;SDS011;2605;49.770;9.868;2023-07-20T03:39:26;2.50;;;2.40;;
5171;SDS011;2605;49.770;9.868;2023-07-20T03:41:52;4.30;;;3.30;;
5171;SDS011;2605;49.770;9.868;2023-07-20T03:44:17;4.90;;;3.10;;
5171;SDS011;2605;49.770;9.868;2023-07-20T03:46:43;3.40;;;3.20;;
5171;SDS011;2605;49.770;9.868;2023-07-20T03:49:09;3.00;;;2.80;;
5171;SDS011;2605;49.770;9.868;2023-07-20T03:51:35;3.80;;;3.50;;
5171;SDS011;2605;49.770;9.868;2023-07-20T03:54:00;2.80;;;2.60;;
5171;SDS011;2605;49.770;9.868;2023-07-20T03:56:26;3.53;;;3.07;;
5171;SDS011;2605;49.770;9.868;2023-07-20T03:58:51;5.97;;;3.40;;
5171;SDS011;2605;49.770;9.868;2023-07-20T04:01:17;2.23;;;1.83;;
5171;SDS011;2605;49.770;9.868;2023-07-20T04:03:43;3.40;;;2.97;;
5171;SDS011;2605;49.770;9.868;2023-07-20T04:06:08;3.23;;;2.93;;
5171;SDS011;2605;49.770;9.868;2023-07-20T04:08:35;10.87;;;4.20;;
5171;SDS011;2605;49.770;9.868;2023-07-20T04:11:01;2.90;;;2.43;;
5171;SDS011;2605;49.770;9.868;2023-07-20T04:13:27;5.70;;;3.13;;
5171;SDS011;2605;49.770;9.868;2023-07-20T04:15:53;2.80;;;2.60;;
5171;SDS011;2605;49.770;9.868;2023-07-20T04:18:18;4.07;;;2.83;;
5171;SDS011;2605;49.770;9.868;2023-07-20T04:20:44;5.00;;;2.10;;
5171;SDS011;2605;49.770;9.868;2023-07-20T04:23:10;2.17;;;2.07;;
5171;SDS011;2605;49.770;9.868;2023-07-20T04:25:35;14.20;;;4.77;;
5171;SDS011;2605;49.770;9.868;2023-07-20T04:28:04;7.30;;;2.93;;
5171;SDS011;2605;49.770;9.868;2023-07-20T04:30:33;6.20;;;3.00;;
5171;SDS011;2605;49.770;9.868;2023-07-20T04:33:05;2.83;;;2.60;;
5171;SDS011;2605;49.770;9.868;2023-07-20T04:35:47;2.97;;;2.87;;
5171;SDS011;2605;49.770;9.868;2023-07-20T04:38:16;5.90;;;3.60;;
5171;SDS011;2605;49.770;9.868;2023-07-20T04:40:42;6.47;;;3.73;;
5171;SDS011;2605;49.770;9.868;2023-07-20T04:43:11;3.03;;;2.50;;
5171;SDS011;2605;49.770;9.868;2023-07-20T04:45:37;3.30;;;3.03;;
5171;SDS011;2605;49.770;9.868;2023-07-20T04:48:03;3.33;;;3.13;;
5171;SDS011;2605;49.770;9.868;2023-07-20T04:50:30;3.30;;;3.03;;
5171;SDS011;2605;49.770;9.868;2023-07-20T04:52:55;4.43;;;3.10;;
5171;SDS011;2605;49.770;9.868;2023-07-20T04:55:21;3.73;;;3.13;;
5171;SDS011;2605;49.770;9.868;2023-07-20T04:57:46;4.23;;;3.83;;
5171;SDS011;2605;49.770;9.868;2023-07-20T05:00:12;3.63;;;3.33;;
5171;SDS011;2605;49.770;9.868;2023-07-20T05:02:39;7.00;;;3.47;;
5171;SDS011;2605;49.770;9.868;2023-07-20T05:05:04;3.13;;;2.83;;
5171;SDS011;2605;49.770;9.868;2023-07-20T05:07:34;3.00;;;2.80;;
5171;SDS011;2605;49.770;9.868;2023-07-20T05:09:59;3.40;;;2.93;;
5171;SDS011;2605;49.770;9.868;2023-07-20T05:12:25;3.23;;;2.97;;
5171;SDS011;2605;49.770;9.868;2023-07-20T05:14:50;8.90;;;3.43;;
5171;SDS011;2605;49.770;9.868;2023-07-20T05:17:16;3.20;;;2.80;;
5171;SDS011;2605;49.770;9.868;2023-07-20T05:19:41;3.63;;;3.13;;
5171;SDS011;2605;49.770;9.868;2023-07-20T05:22:07;9.20;;;2.90;;
5171;SDS011;2605;49.770;9.868;2023-07-20T05:24:32;4.03;;;3.63;;
5171;SDS011;2605;49.770;9.868;2023-07-20T05:26:58;5.40;;;3.40;;
5171;SDS011;2605;49.770;9.868;2023-07-20T05:29:24;5.67;;;3.93;;
5171;SDS011;2605;49.770;9.868;2023-07-20T05:31:50;5.60;;;3.60;;
5171;SDS011;2605;49.770;9.868;2023-07-20T05:34:15;4.80;;;2.90;;
5171;SDS011;2605;49.770;9.868;2023-07-20T05:36:41;2.70;;;2.50;;
5171;SDS011;2605;49.770;9.868;2023-07-20T05:39:07;3.20;;;2.90;;
5171;SDS011;2605;49.770;9.868;2023-07-20T05:41:32;3.80;;;3.40;;
5171;SDS011;2605;49.770;9.868;2023-07-20T05:43:58;3.90;;;3.47;;
5171;SDS011;2605;49.770;9.868;2023-07-20T05:46:23;3.33;;;3.10;;
5171;SDS011;2605;49.770;9.868;2023-07-20T05:48:49;8.10;;;5.50;;
5171;SDS011;2605;49.770;9.868;2023-07-20T05:51:15;4.10;;;3.63;;
5171;SDS011;2605;49.770;9.868;2023-07-20T05:53:40;10.93;;;3.87;;
5171;SDS011;2605;49.770;9.868;2023-07-20T05:56:06;8.43;;;3.40;;
5171;SDS011;2605;49.770;9.868;2023-07-20T05:58:35;4.47;;;2.90;;
5171;SDS011;2605;49.770;9.868;2023-07-20T06:01:01;3.83;;;3.10;;
5171;SDS011;2605;49.770;9.868;2023-07-20T06:03:28;9.90;;;5.03;;
5171;SDS011;2605;49.770;9.868;2023-07-20T06:06:00;4.57;;;3.80;;
5171;SDS011;2605;49.770;9.868;2023-07-20T06:08:27;3.70;;;3.40;;
5171;SDS011;2605;49.770;9.868;2023-07-20T06:10:53;4.00;;;3.70;;
5171;SDS011;2605;49.770;9.868;2023-07-20T06:13:19;4.00;;;3.30;;
5171;SDS011;2605;49.770;9.868;2023-07-20T06:15:45;4.13;;;3.17;;
5171;SDS011;2605;49.770;9.868;2023-07-20T06:18:10;7.50;;;3.40;;
5171;SDS011;2605;49.770;9.868;2023-07-20T06:20:36;4.10;;;3.17;;
5171;SDS011;2605;49.770;9.868;2023-07-20T06:23:01;7.53;;;5.50;;
5171;SDS011;2605;49.770;9.868;2023-07-20T06:25:27;7.07;;;3.07;;
5171;SDS011;2605;49.770;9.868;2023-07-20T06:27:54;7.07;;;3.10;;
5171;SDS011;2605;49.770;9.868;2023-07-20T06:30:20;3.53;;;3.07;;
5171;SDS011;2605;49.770;9.868;2023-07-20T06:32:46;4.60;;;3.00;;
5171;SDS011;2605;49.770;9.868;2023-07-20T06:35:12;4.60;;;3.37;;
5171;SDS011;2605;49.770;9.868;2023-07-20T06:37:37;6.47;;;2.40;;
5171;SDS011;2605;49.770;9.868;2023-07-20T06:40:03;8.13;;;4.37;;
5171;SDS011;2605;49.770;9.868;2023-07-20T06:42:29;5.90;;;3.70;;
5171;SDS011;2605;49.770;9.868;2023-07-20T06:44:56;5.70;;;3.50;;
5171;SDS011;2605;49.770;9.868;2023-07-20T06:47:22;6.27;;;3.60;;
5171;SDS011;2605;49.770;9.868;2023-07-20T06:49:47;3.90;;;3.33;;
5171;SDS011;2605;49.770;9.868;2023-07-20T06:52:13;8.50;;;3.00;;
5171;SDS011;2605;49.770;9.868;2023-07-20T06:54:38;5.43;;;3.73;;
5171;SDS011;2605;49.770;9.868;2023-07-20T06:57:05;5.67;;;3.17;;
5171;SDS011;2605;49.770;9.868;2023-07-20T06:59:30;3.40;;;2.73;;
5171;SDS011;2605;49.770;9.868;2023-07-20T07:01:56;4.70;;;2.63;;
5171;SDS011;2605;49.770;9.868;2023-07-20T07:04:21;7.97;;;3.07;;
5171;SDS011;2605;49.770;9.868;2023-07-20T07:06:47;6.97;;;3.80;;
5171;SDS011;2605;49.770;9.868;2023-07-20T07:09:13;4.37;;;3.47;;
5171;SDS011;2605;49.770;9.868;2023-07-20T07:11:38;11.03;;;3.37;;
5171;SDS011;2605;49.770;9.868;2023-07-20T07:14:07;6.77;;;3.23;;
5171;SDS011;2605;49.770;9.868;2023-07-20T07:16:32;9.73;;;4.10;;
5171;SDS011;2605;49.770;9.868;2023-07-20T07:18:58;8.73;;;3.00;;
5171;SDS011;2605;49.770;9.868;2023-07-20T07:21:24;6.00;;;2.63;;
5171;SDS011;2605;49.770;9.868;2023-07-20T07:23:50;4.57;;;3.03;;
5171;SDS011;2605;49.770;9.868;2023-07-20T07:26:18;2.63;;;2.43;;
5171;SDS011;2605;49.770;9.868;2023-07-20T07:28:44;4.10;;;3.43;;
5171;SDS011;2605;49.770;9.868;2023-07-20T07:31:09;3.60;;;3.30;;
5171;SDS011;2605;49.770;9.868;2023-07-20T07:33:35;2.27;;;2.07;;
5171;SDS011;2605;49.770;9.868;2023-07-20T07:36:01;6.47;;;3.60;;
5171;SDS011;2605;49.770;9.868;2023-07-20T07:38:26;3.43;;;2.80;;
5171;SDS011;2605;49.770;9.868;2023-07-20T07:40:52;6.40;;;3.43;;
5171;SDS011;2605;49.770;9.868;2023-07-20T07:43:17;8.30;;;2.43;;
5171;SDS011;2605;49.770;9.868;2023-07-20T07:45:42;5.40;;;2.93;;
5171;SDS011;2605;49.770;9.868;2023-07-20T07:48:08;6.27;;;2.37;;
5171;SDS011;2605;49.770;9.868;2023-07-20T07:50:36;5.43;;;2.80;;
5171;SDS011;2605;49.770;9.868;2023-07-20T07:53:02;4.30;;;2.60;;
5171;SDS011;2605;49.770;9.868;2023-07-20T07:55:28;3.50;;;2.23;;
5171;SDS011;2605;49.770;9.868;2023-07-20T07:57:53;5.70;;;2.60;;
5171;SDS011;2605;49.770;9.868;2023-07-20T08:00:19;9.03;;;3.30;;
5171;SDS011;2605;49.770;9.868;2023-07-20T08:02:45;3.27;;;2.67;;
5171;SDS011;2605;49.770;9.868;2023-07-20T08:05:12;3.10;;;2.87;;
5171;SDS011;2605;49.770;9.868;2023-07-20T08:07:38;3.83;;;2.47;;
5171;SDS011;2605;49.770;9.868;2023-07-20T08:10:04;2.37;;;2.17;;
5171;SDS011;2605;49.770;9.868;2023-07-20T08:12:30;3.13;;;2.80;;
5171;SDS011;2605;49.770;9.868;2023-07-20T08:14:56;2.43;;;2.23;;
5171;SDS011;2605;49.770;9.868;2023-07-20T08:17:22;5.13;;;2.90;;
5171;SDS011;2605;49.770;9.868;2023-07-20T08:19:47;4.17;;;3.60;;
5171;SDS011;2605;49.770;9.868;2023-07-20T08:22:13;4.10;;;2.60;;
5171;SDS011;2605;49.770;9.868;2023-07-20T08:24:39;4.00;;;2.73;;
5171;SDS011;2605;49.770;9.868;2023-07-20T08:27:05;2.43;;;1.97;;
5171;SDS011;2605;49.770;9.868;2023-07-20T08:29:31;3.73;;;2.30;;
5171;SDS011;2605;49.770;9.868;2023-07-20T08:31:57;6.57;;;2.83;;
5171;SDS011;2605;49.770;9.868;2023-07-20T08:34:22;2.33;;;2.13;;
5171;SDS011;2605;49.770;9.868;2023-07-20T08:36:48;3.70;;;2.77;;
5171;SDS011;2605;49.770;9.868;2023-07-20T08:39:13;5.17;;;2.83;;
5171;SDS011;2605;49.770;9.868;2023-07-20T08:41:39;3.13;;;2.83;;
5171;SDS011;2605;49.770;9.868;2023-07-20T08:44:11;2.40;;;2.20;;
5171;SDS011;2605;49.770;9.868;2023-07-20T08:46:38;2.77;;;2.53;;
5171;SDS011;2605;49.770;9.868;2023-07-20T08:49:05;2.00;;;1.90;;
5171;SDS011;2605;49.770;9.868;2023-07-20T08:51:31;2.10;;;1.80;;
5171;SDS011;2605;49.770;9.868;2023-07-20T08:53:58;2.60;;;2.40;;
5171;SDS011;2605;49.770;9.868;2023-07-20T08:56:25;2.70;;;2.20;;
5171;SDS011;2605;49.770;9.868;2023-07-20T08:58:51;7.80;;;2.70;;
5171;SDS011;2605;49.770;9.868;2023-07-20T09:01:21;5.67;;;3.03;;
5171;SDS011;2605;49.770;9.868;2023-07-20T09:03:47;1.93;;;1.73;;
5171;SDS011;2605;49.770;9.868;2023-07-20T09:06:13;4.63;;;2.50;;
5171;SDS011;2605;49.770;9.868;2023-07-20T09:08:39;4.13;;;2.40;;
5171;SDS011;2605;49.770;9.868;2023-07-20T09:11:05;2.50;;;2.30;;
5171;SDS011;2605;49.770;9.868;2023-07-20T09:13:34;4.17;;;2.93;;
5171;SDS011;2605;49.770;9.868;2023-07-20T09:16:00;2.30;;;2.10;;
5171;SDS011;2605;49.770;9.868;2023-07-20T09:18:27;2.50;;;2.00;;
5171;SDS011;2605;49.770;9.868;2023-07-20T09:21:03;1.93;;;1.70;;
5171;SDS011;2605;49.770;9.868;2023-07-20T09:23:39;4.27;;;2.23;;
5171;SDS011;2605;49.770;9.868;2023-07-20T09:26:11;2.60;;;2.40;;
5171;SDS011;2605;49.770;9.868;2023-07-20T09:28:49;2.70;;;2.50;;
5171;SDS011;2605;49.770;9.868;2023-07-20T09:31:17;1.97;;;1.87;;
5171;SDS011;2605;49.770;9.868;2023-07-20T09:33:43;3.40;;;2.17;;
5171;SDS011;2605;49.770;9.868;2023-07-20T09:36:09;3.93;;;2.30;;
5171;SDS011;2605;49.770;9.868;2023-07-20T09:38:36;3.80;;;2.23;;
5171;SDS011;2605;49.770;9.868;2023-07-20T09:41:02;1.73;;;1.63;;
5171;SDS011;2605;49.770;9.868;2023-07-20T09:43:30;5.53;;;1.70;;
5171;SDS011;2605;49.770;9.868;2023-07-20T09:45:57;2.53;;;2.33;;
5171;SDS011;2605;49.770;9.868;2023-07-20T09:48:24;2.67;;;2.47;;
5171;SDS011;2605;49.770;9.868;2023-07-20T09:50:51;2.30;;;1.97;;
5171;SDS011;2605;49.770;9.868;2023-07-20T09:53:17;9.13;;;2.73;;
5171;SDS011;2605;49.770;9.868;2023-07-20T09:55:46;2.00;;;1.80;;
5171;SDS011;2605;49.770;9.868;2023-07-20T09:58:12;2.40;;;2.20;;
5171;SDS011;2605;49.770;9.868;2023-07-20T10:00:39;2.07;;;1.87;;
5171;SDS011;2605;49.770;9.868;2023-07-20T10:03:06;2.50;;;2.30;;
5171;SDS011;2605;49.770;9.868;2023-07-20T10:05:32;1.83;;;1.73;;
5171;SDS011;2605;49.770;9.868;2023-07-20T10:08:00;4.97;;;2.30;;
5171;SDS011;2605;49.770;9.868;2023-07-20T10:10:29;1.80;;;1.70;;
5171;SDS011;2605;49.770;9.868;2023-07-20T10:12:59;2.77;;;2.40;;
5171;SDS011;2605;49.770;9.868;2023-07-20T10:15:43;2.37;;;1.93;;
5171;SDS011;2605;49.770;9.868;2023-07-20T10:20:54;2.70;;;2.50;;
5171;SDS011;2605;49.770;9.868;2023-07-20T10:23:20;2.07;;;1.90;;
5171;SDS011;2605;49.770;9.868;2023-07-20T10:25:47;2.53;;;2.20;;
5171;SDS011;2605;49.770;9.868;2023-07-20T10:28:13;1.70;;;1.60;;
5171;SDS011;2605;49.770;9.868;2023-07-20T10:30:39;4.30;;;2.07;;
5171;SDS011;2605;49.770;9.868;2023-07-20T10:33:06;5.97;;;1.63;;
5171;SDS011;2605;49.770;9.868;2023-07-20T10:35:51;4.23;;;2.27;;
5171;SDS011;2605;49.770;9.868;2023-07-20T10:41:16;2.30;;;2.20;;
5171;SDS011;2605;49.770;9.868;2023-07-20T10:43:46;2.00;;;1.90;;
5171;SDS011;2605;49.770;9.868;2023-07-20T10:46:13;1.77;;;1.67;;
5171;SDS011;2605;49.770;9.868;2023-07-20T10:51:30;1.67;;;1.40;;
5171;SDS011;2605;49.770;9.868;2023-07-20T10:54:08;2.60;;;2.40;;
5171;SDS011;2605;49.770;9.868;2023-07-20T10:56:55;1.87;;;1.77;;
5171;SDS011;2605;49.770;9.868;2023-07-20T10:59:40;2.83;;;2.23;;
5171;SDS011;2605;49.770;9.868;2023-07-20T11:02:09;1.97;;;1.87;;
5171;SDS011;2605;49.770;9.868;2023-07-20T11:04:41;2.90;;;1.40;;
5171;SDS011;2605;49.770;9.868;2023-07-20T11:07:08;2.43;;;2.23;;
5171;SDS011;2605;49.770;9.868;2023-07-20T11:09:37;2.80;;;2.17;;
5171;SDS011;2605;49.770;9.868;2023-07-20T11:14:42;2.60;;;2.03;;
5171;SDS011;2605;49.770;9.868;2023-07-20T11:17:22;4.60;;;2.07;;
5171;SDS011;2605;49.770;9.868;2023-07-20T11:19:57;1.83;;;1.30;;
5171;SDS011;2605;49.770;9.868;2023-07-20T11:22:23;3.00;;;1.90;;
5171;SDS011;2605;49.770;9.868;2023-07-20T11:24:49;2.10;;;2.00;;
5171;SDS011;2605;49.770;9.868;2023-07-20T11:27:15;2.40;;;2.20;;
5171;SDS011;2605;49.770;9.868;2023-07-20T11:29:41;2.90;;;2.30;;
5171;SDS011;2605;49.770;9.868;2023-07-20T11:32:06;2.30;;;1.60;;
5171;SDS011;2605;49.770;9.868;2023-07-20T11:34:33;1.67;;;1.40;;
5171;SDS011;2605;49.770;9.868;2023-07-20T11:37:00;1.47;;;1.37;;
5171;SDS011;2605;49.770;9.868;2023-07-20T11:39:26;2.53;;;2.10;;
5171;SDS011;2605;49.770;9.868;2023-07-20T11:41:52;1.77;;;1.67;;
5171;SDS011;2605;49.770;9.868;2023-07-20T11:44:20;2.53;;;2.00;;
5171;SDS011;2605;49.770;9.868;2023-07-20T11:47:07;1.87;;;1.77;;
5171;SDS011;2605;49.770;9.868;2023-07-20T11:49:34;1.93;;;1.70;;
5171;SDS011;2605;49.770;9.868;2023-07-20T11:52:05;1.70;;;1.60;;
5171;SDS011;2605;49.770;9.868;2023-07-20T11:54:32;1.60;;;1.50;;
5171;SDS011;2605;49.770;9.868;2023-07-20T11:57:05;2.37;;;1.63;;
5171;SDS011;2605;49.770;9.868;2023-07-20T11:59:31;1.90;;;1.70;;
5171;SDS011;2605;49.770;9.868;2023-07-20T12:01:58;1.90;;;1.73;;
5171;SDS011;2605;49.770;9.868;2023-07-20T12:04:28;1.90;;;1.80;;
5171;SDS011;2605;49.770;9.868;2023-07-20T12:06:54;1.77;;;1.67;;
5171;SDS011;2605;49.770;9.868;2023-07-20T12:09:22;1.13;;;1.07;;
5171;SDS011;2605;49.770;9.868;2023-07-20T12:11:49;3.40;;;1.90;;
5171;SDS011;2605;49.770;9.868;2023-07-20T12:14:15;2.07;;;1.87;;
5171;SDS011;2605;49.770;9.868;2023-07-20T12:16:41;1.73;;;1.63;;
5171;SDS011;2605;49.770;9.868;2023-07-20T12:19:07;3.37;;;1.67;;
5171;SDS011;2605;49.770;9.868;2023-07-20T12:21:35;4.63;;;1.80;;
5171;SDS011;2605;49.770;9.868;2023-07-20T12:24:02;1.90;;;1.57;;
5171;SDS011;2605;49.770;9.868;2023-07-20T12:26:31;1.80;;;1.70;;
5171;SDS011;2605;49.770;9.868;2023-07-20T12:28:58;1.70;;;1.60;;
5171;SDS011;2605;49.770;9.868;2023-07-20T12:31:24;1.83;;;1.73;;
5171;SDS011;2605;49.770;9.868;2023-07-20T12:33:51;3.07;;;1.83;;
5171;SDS011;2605;49.770;9.868;2023-07-20T12:36:18;1.90;;;1.70;;
5171;SDS011;2605;49.770;9.868;2023-07-20T12:38:44;2.10;;;2.00;;
5171;SDS011;2605;49.770;9.868;2023-07-20T12:41:10;2.13;;;1.80;;
5171;SDS011;2605;49.770;9.868;2023-07-20T12:43:40;2.23;;;1.90;;
5171;SDS011;2605;49.770;9.868;2023-07-20T12:46:06;1.57;;;1.47;;
5171;SDS011;2605;49.770;9.868;2023-07-20T12:48:33;2.50;;;1.40;;
5171;SDS011;2605;49.770;9.868;2023-07-20T12:50:58;2.00;;;1.63;;
5171;SDS011;2605;49.770;9.868;2023-07-20T12:53:24;3.00;;;1.53;;
5171;SDS011;2605;49.770;9.868;2023-07-20T12:55:49;1.83;;;1.73;;
5171;SDS011;2605;49.770;9.868;2023-07-20T12:58:15;1.80;;;1.70;;
5171;SDS011;2605;49.770;9.868;2023-07-20T13:00:40;1.60;;;1.50;;
5171;SDS011;2605;49.770;9.868;2023-07-20T13:03:06;2.00;;;1.50;;
5171;SDS011;2605;49.770;9.868;2023-07-20T13:05:33;2.00;;;1.57;;
5171;SDS011;2605;49.770;9.868;2023-07-20T13:07:59;1.30;;;1.20;;
5171;SDS011;2605;49.770;9.868;2023-07-20T13:10:25;2.60;;;1.80;;
5171;SDS011;2605;49.770;9.868;2023-07-20T13:12:51;5.03;;;1.53;;
5171;SDS011;2605;49.770;9.868;2023-07-20T13:15:17;1.57;;;1.47;;
5171;SDS011;2605;49.770;9.868;2023-07-20T13:17:43;1.50;;;1.40;;
5171;SDS011;2605;49.770;9.868;2023-07-20T13:20:09;1.63;;;1.53;;
5171;SDS011;2605;49.770;9.868;2023-07-20T13:22:39;27.87;;;1.70;;
5171;SDS011;2605;49.770;9.868;2023-07-20T13:25:05;1.27;;;1.27;;
5171;SDS011;2605;49.770;9.868;2023-07-20T13:27:34;1.50;;;1.40;;
5171;SDS011;2605;49.770;9.868;2023-07-20T13:30:01;1.77;;;1.67;;
5171;SDS011;2605;49.770;9.868;2023-07-20T13:32:31;1.70;;;1.60;;
5171;SDS011;2605;49.770;9.868;2023-07-20T13:34:57;1.50;;;1.40;;
5171;SDS011;2605;49.770;9.868;2023-07-20T13:37:22;1.60;;;1.50;;
5171;SDS011;2605;49.770;9.868;2023-07-20T13:39:48;2.40;;;2.20;;
5171;SDS011;2605;49.770;9.868;2023-07-20T13:42:16;2.17;;;2.00;;
5171;SDS011;2605;49.770;9.868;2023-07-20T13:44:42;2.40;;;1.67;;
5171;SDS011;2605;49.770;9.868;2023-07-20T13:47:08;3.03;;;1.73;;
5171;SDS011;2605;49.770;9.868;2023-07-20T13:49:33;2.00;;;1.90;;
5171;SDS011;2605;49.770;9.868;2023-07-20T13:51:59;1.83;;;1.73;;
5171;SDS011;2605;49.770;9.868;2023-07-20T13:54:25;1.40;;;1.40;;
5171;SDS011;2605;49.770;9.868;2023-07-20T13:56:53;1.77;;;1.67;;
5171;SDS011;2605;49.770;9.868;2023-07-20T13:59:19;2.60;;;1.70;;
5171;SDS011;2605;49.770;9.868;2023-07-20T14:01:45;1.63;;;1.53;;
5171;SDS011;2605;49.770;9.868;2023-07-20T14:04:11;5.73;;;1.60;;
5171;SDS011;2605;49.770;9.868;2023-07-20T14:06:36;2.53;;;2.00;;
5171;SDS011;2605;49.770;9.868;2023-07-20T14:09:02;2.00;;;1.70;;
5171;SDS011;2605;49.770;9.868;2023-07-20T14:11:28;1.57;;;1.47;;
5171;SDS011;2605;49.770;9.868;2023-07-20T14:13:54;1.90;;;1.80;;
5171;SDS011;2605;49.770;9.868;2023-07-20T14:16:20;2.73;;;2.07;;
5171;SDS011;2605;49.770;9.868;2023-07-20T14:18:49;2.37;;;1.70;;
5171;SDS011;2605;49.770;9.868;2023-07-20T14:21:15;1.57;;;1.47;;
5171;SDS011;2605;49.770;9.868;2023-07-20T14:23:41;1.47;;;1.37;;
5171;SDS011;2605;49.770;9.868;2023-07-20T14:26:07;1.80;;;1.70;;
5171;SDS011;2605;49.770;9.868;2023-07-20T14:28:33;1.97;;;1.80;;
5171;SDS011;2605;49.770;9.868;2023-07-20T14:30:59;1.77;;;1.67;;
5171;SDS011;2605;49.770;9.868;2023-07-20T14:33:25;2.50;;;2.30;;
5171;SDS011;2605;49.770;9.868;2023-07-20T14:35:50;1.60;;;1.50;;
5171;SDS011;2605;49.770;9.868;2023-07-20T14:38:16;1.40;;;1.30;;
5171;SDS011;2605;49.770;9.868;2023-07-20T14:40:41;1.43;;;1.33;;
5171;SDS011;2605;49.770;9.868;2023-07-20T14:43:07;1.60;;;1.50;;
5171;SDS011;2605;49.770;9.868;2023-07-20T14:45:33;1.57;;;1.47;;
5171;SDS011;2605;49.770;9.868;2023-07-20T14:47:58;1.83;;;1.40;;
5171;SDS011;2605;49.770;9.868;2023-07-20T14:50:24;1.70;;;1.60;;
5171;SDS011;2605;49.770;9.868;2023-07-20T14:52:50;1.40;;;1.30;;
5171;SDS011;2605;49.770;9.868;2023-07-20T14:55:15;1.73;;;1.63;;
5171;SDS011;2605;49.770;9.868;2023-07-20T14:57:42;2.87;;;2.03;;
5171;SDS011;2605;49.770;9.868;2023-07-20T15:00:08;1.73;;;1.57;;
5171;SDS011;2605;49.770;9.868;2023-07-20T15:02:35;1.80;;;1.53;;
5171;SDS011;2605;49.770;9.868;2023-07-20T15:05:02;6.00;;;2.23;;
5171;SDS011;2605;49.770;9.868;2023-07-20T15:07:28;1.63;;;1.37;;
5171;SDS011;2605;49.770;9.868;2023-07-20T15:09:54;1.60;;;1.50;;
5171;SDS011;2605;49.770;9.868;2023-07-20T15:12:19;1.73;;;1.63;;
5171;SDS011;2605;49.770;9.868;2023-07-20T15:14:45;1.67;;;1.57;;
5171;SDS011;2605;49.770;9.868;2023-07-20T15:17:33;1.80;;;1.70;;
5171;SDS011;2605;49.770;9.868;2023-07-20T15:20:03;1.77;;;1.67;;
5171;SDS011;2605;49.770;9.868;2023-07-20T15:22:31;1.77;;;1.60;;
5171;SDS011;2605;49.770;9.868;2023-07-20T15:24:57;2.10;;;1.90;;
5171;SDS011;2605;49.770;9.868;2023-07-20T15:27:22;1.83;;;1.67;;
5171;SDS011;2605;49.770;9.868;2023-07-20T15:29:48;1.67;;;1.57;;
5171;SDS011;2605;49.770;9.868;2023-07-20T15:32:14;2.53;;;1.80;;